sensor_id;sensor_type;location;lat;lon;timestamp;temperature;humidity
70368;DHT22;57789;53.868;10.728;2024-03-23T00:54:45;6.70;99.90
70368;DHT22;57789;53.868;10.728;2024-03-23T00:57:11;6.60;99.90
70368;DHT22;57789;53.868;10.728;2024-03-23T00:59:36;6.60;99.90
70368;DHT22;57789;53.868;10.728;2024-03-23T01:02:02;6.60;99.90
70368;DHT22;57789;53.868;10.728;2024-03-23T01:04:28;6.60;99.90
70368;DHT22;57789;53.868;10.728;2024-03-23T01:06:53;6.60;99.90
70368;DHT22;57789;53.868;10.728;2024-03-23T01:09:19;6.60;99.90
70368;DHT22;57789;53.868;10.728;2024-03-23T01:11:45;6.60;99.90
70368;DHT22;57789;53.868;10.728;2024-03-23T01:14:10;6.50;99.90
70368;DHT22;57789;53.868;10.728;2024-03-23T01:16:36;6.50;99.90
70368;DHT22;57789;53.868;10.728;2024-03-23T01:19:02;6.50;99.90
70368;DHT22;57789;53.868;10.728;2024-03-23T01:21:27;6.50;99.90
70368;DHT22;57789;53.868;10.728;2024-03-23T01:23:53;6.50;99.90
70368;DHT22;57789;53.868;10.728;2024-03-23T01:26:19;6.50;99.90
70368;DHT22;57789;53.868;10.728;2024-03-23T01:28:44;6.40;99.90
70368;DHT22;57789;53.868;10.728;2024-03-23T01:31:10;6.40;99.90
70368;DHT22;57789;53.868;10.728;2024-03-23T01:33:36;6.50;99.90
70368;DHT22;57789;53.868;10.728;2024-03-23T01:36:01;6.50;99.90
70368;DHT22;57789;53.868;10.728;2024-03-23T01:38:27;6.40;99.90
70368;DHT22;57789;53.868;10.728;2024-03-23T01:40:59;6.40;99.90
70368;DHT22;57789;53.868;10.728;2024-03-23T01:43:24;6.30;99.90
70368;DHT22;57789;53.868;10.728;2024-03-23T01:45:50;6.30;99.90
70368;DHT22;57789;53.868;10.728;2024-03-23T01:48:19;6.30;99.90
70368;DHT22;57789;53.868;10.728;2024-03-23T01:50:45;6.30;99.90
70368;DHT22;57789;53.868;10.728;2024-03-23T01:53:12;6.30;99.90
70368;DHT22;57789;53.868;10.728;2024-03-23T01:55:40;6.30;99.90
70368;DHT22;57789;53.868;10.728;2024-03-23T01:58:06;6.30;99.90
70368;DHT22;57789;53.868;10.728;2024-03-23T02:00:32;6.30;99.90
70368;DHT22;57789;53.868;10.728;2024-03-23T02:02:58;6.30;99.90
70368;DHT22;57789;53.868;10.728;2024-03-23T02:05:24;6.30;99.90
70368;DHT22;57789;53.868;10.728;2024-03-23T02:07:50;6.30;99.90
70368;DHT22;57789;53.868;10.728;2024-03-23T02:10:16;6.30;99.90
70368;DHT22;57789;53.868;10.728;2024-03-23T02:12:42;6.30;99.90
70368;DHT22;57789;53.868;10.728;2024-03-23T02:15:07;6.20;99.90
70368;DHT22;57789;53.868;10.728;2024-03-23T02:17:36;6.10;99.90
70368;DHT22;57789;53.868;10.728;2024-03-23T02:20:04;6.10;99.90
70368;DHT22;57789;53.868;10.728;2024-03-23T02:22:38;6.10;99.90
70368;DHT22;57789;53.868;10.728;2024-03-23T02:25:05;6.10;99.90
70368;DHT22;57789;53.868;10.728;2024-03-23T02:27:30;6.00;99.90
70368;DHT22;57789;53.868;10.728;2024-03-23T02:29:56;6.00;99.90
70368;DHT22;57789;53.868;10.728;2024-03-23T02:32:22;6.00;99.90
70368;DHT22;57789;53.868;10.728;2024-03-23T02:34:48;6.00;99.90
70368;DHT22;57789;53.868;10.728;2024-03-23T02:37:13;6.00;99.90
70368;DHT22;57789;53.868;10.728;2024-03-23T02:39:39;6.00;99.90
70368;DHT22;57789;53.868;10.728;2024-03-23T02:42:05;5.90;99.90
70368;DHT22;57789;53.868;10.728;2024-03-23T02:44:31;5.90;99.90
70368;DHT22;57789;53.868;10.728;2024-03-23T02:46:57;5.90;99.90
70368;DHT22;57789;53.868;10.728;2024-03-23T02:49:22;5.90;99.90
70368;DHT22;57789;53.868;10.728;2024-03-23T02:51:48;5.80;99.90
70368;DHT22;57789;53.868;10.728;2024-03-23T02:54:14;5.80;99.90
70368;DHT22;57789;53.868;10.728;2024-03-23T02:56:40;5.70;99.90
70368;DHT22;57789;53.868;10.728;2024-03-23T02:59:06;5.70;99.90
70368;DHT22;57789;53.868;10.728;2024-03-23T03:01:32;5.70;99.90
70368;DHT22;57789;53.868;10.728;2024-03-23T03:03:57;5.60;99.90
70368;DHT22;57789;53.868;10.728;2024-03-23T03:06:26;5.60;99.90
70368;DHT22;57789;53.868;10.728;2024-03-23T03:08:52;5.50;99.90
70368;DHT22;57789;53.868;10.728;2024-03-23T03:11:18;5.50;99.90
70368;DHT22;57789;53.868;10.728;2024-03-23T03:13:43;5.40;99.90
70368;DHT22;57789;53.868;10.728;2024-03-23T03:16:12;5.50;99.90
70368;DHT22;57789;53.868;10.728;2024-03-23T03:18:38;5.50;99.90
70368;DHT22;57789;53.868;10.728;2024-03-23T03:21:05;5.50;99.90
70368;DHT22;57789;53.868;10.728;2024-03-23T03:23:39;5.50;99.90
70368;DHT22;57789;53.868;10.728;2024-03-23T03:26:04;5.40;99.90
70368;DHT22;57789;53.868;10.728;2024-03-23T03:28:33;5.40;99.90
70368;DHT22;57789;53.868;10.728;2024-03-23T03:31:00;5.40;99.90
70368;DHT22;57789;53.868;10.728;2024-03-23T03:33:29;5.40;99.90
70368;DHT22;57789;53.868;10.728;2024-03-23T03:35:55;5.30;99.90
70368;DHT22;57789;53.868;10.728;2024-03-23T03:38:21;5.40;99.90
70368;DHT22;57789;53.868;10.728;2024-03-23T03:40:47;5.40;99.90
70368;DHT22;57789;53.868;10.728;2024-03-23T03:43:13;5.30;99.90
70368;DHT22;57789;53.868;10.728;2024-03-23T03:45:38;5.30;99.90
70368;DHT22;57789;53.868;10.728;2024-03-23T03:48:04;5.30;99.90
70368;DHT22;57789;53.868;10.728;2024-03-23T03:50:30;5.30;99.90
70368;DHT22;57789;53.868;10.728;2024-03-23T03:52:56;5.40;99.90
70368;DHT22;57789;53.868;10.728;2024-03-23T03:55:21;5.40;99.90
70368;DHT22;57789;53.868;10.728;2024-03-23T03:57:47;5.30;99.90
70368;DHT22;57789;53.868;10.728;2024-03-23T04:00:13;5.40;99.90
70368;DHT22;57789;53.868;10.728;2024-03-23T04:02:39;5.30;99.90
70368;DHT22;57789;53.868;10.728;2024-03-23T04:05:04;5.30;99.90
70368;DHT22;57789;53.868;10.728;2024-03-23T04:07:31;5.20;99.90
70368;DHT22;57789;53.868;10.728;2024-03-23T04:09:56;5.20;99.90
70368;DHT22;57789;53.868;10.728;2024-03-23T04:12:23;5.20;99.90
70368;DHT22;57789;53.868;10.728;2024-03-23T04:14:49;5.20;99.90
70368;DHT22;57789;53.868;10.728;2024-03-23T04:17:15;5.20;99.90
70368;DHT22;57789;53.868;10.728;2024-03-23T04:19:40;5.30;99.90
70368;DHT22;57789;53.868;10.728;2024-03-23T04:22:06;5.30;99.90
70368;DHT22;57789;53.868;10.728;2024-03-23T04:24:32;5.20;99.90
70368;DHT22;57789;53.868;10.728;2024-03-23T04:26:58;5.20;99.90
70368;DHT22;57789;53.868;10.728;2024-03-23T04:29:23;5.20;99.90
70368;DHT22;57789;53.868;10.728;2024-03-23T04:31:49;5.20;99.90
70368;DHT22;57789;53.868;10.728;2024-03-23T04:34:14;5.20;99.90
70368;DHT22;57789;53.868;10.728;2024-03-23T04:36:40;5.20;99.90
70368;DHT22;57789;53.868;10.728;2024-03-23T04:39:06;5.20;99.90
70368;DHT22;57789;53.868;10.728;2024-03-23T04:41:34;5.10;99.90
70368;DHT22;57789;53.868;10.728;2024-03-23T04:44:00;5.20;99.90
70368;DHT22;57789;53.868;10.728;2024-03-23T04:46:26;5.10;99.90
70368;DHT22;57789;53.868;10.728;2024-03-23T04:48:52;5.10;99.90
70368;DHT22;57789;53.868;10.728;2024-03-23T04:51:23;5.20;99.90
70368;DHT22;57789;53.868;10.728;2024-03-23T04:53:49;5.20;99.90
70368;DHT22;57789;53.868;10.728;2024-03-23T04:56:16;5.20;99.90
70368;DHT22;57789;53.868;10.728;2024-03-23T04:58:43;5.30;99.90
70368;DHT22;57789;53.868;10.728;2024-03-23T05:01:10;5.20;99.90
70368;DHT22;57789;53.868;10.728;2024-03-23T05:03:35;5.20;99.90
70368;DHT22;57789;53.868;10.728;2024-03-23T05:06:01;5.20;99.90
70368;DHT22;57789;53.868;10.728;2024-03-23T05:08:29;5.10;99.90
70368;DHT22;57789;53.868;10.728;2024-03-23T05:10:55;5.10;99.90
70368;DHT22;57789;53.868;10.728;2024-03-23T05:13:21;5.10;99.90
70368;DHT22;57789;53.868;10.728;2024-03-23T05:15:53;5.00;99.90
70368;DHT22;57789;53.868;10.728;2024-03-23T05:18:19;5.00;99.90
70368;DHT22;57789;53.868;10.728;2024-03-23T05:20:45;5.00;99.90
70368;DHT22;57789;53.868;10.728;2024-03-23T05:23:11;5.00;99.90
70368;DHT22;57789;53.868;10.728;2024-03-23T05:25:36;5.10;99.90
70368;DHT22;57789;53.868;10.728;2024-03-23T05:28:02;5.00;99.90
70368;DHT22;57789;53.868;10.728;2024-03-23T05:30:28;5.00;99.90
70368;DHT22;57789;53.868;10.728;2024-03-23T05:32:54;5.00;99.90
70368;DHT22;57789;53.868;10.728;2024-03-23T05:35:19;5.10;99.90
70368;DHT22;57789;53.868;10.728;2024-03-23T05:37:45;5.10;99.90
70368;DHT22;57789;53.868;10.728;2024-03-23T05:40:11;5.10;99.90
70368;DHT22;57789;53.868;10.728;2024-03-23T05:42:38;5.10;99.90
70368;DHT22;57789;53.868;10.728;2024-03-23T05:45:04;5.10;99.90
70368;DHT22;57789;53.868;10.728;2024-03-23T05:47:32;5.20;99.90
70368;DHT22;57789;53.868;10.728;2024-03-23T05:49:57;5.20;99.90
70368;DHT22;57789;53.868;10.728;2024-03-23T05:52:23;5.20;99.90
70368;DHT22;57789;53.868;10.728;2024-03-23T05:54:51;5.30;99.90
70368;DHT22;57789;53.868;10.728;2024-03-23T05:57:16;5.30;99.90
70368;DHT22;57789;53.868;10.728;2024-03-23T05:59:42;5.30;99.90
70368;DHT22;57789;53.868;10.728;2024-03-23T06:02:08;5.40;99.90
70368;DHT22;57789;53.868;10.728;2024-03-23T06:04:36;5.40;99.90
70368;DHT22;57789;53.868;10.728;2024-03-23T06:07:01;5.50;99.90
70368;DHT22;57789;53.868;10.728;2024-03-23T06:09:27;5.40;99.90
70368;DHT22;57789;53.868;10.728;2024-03-23T06:11:53;5.40;99.90
70368;DHT22;57789;53.868;10.728;2024-03-23T06:14:18;5.50;99.90
70368;DHT22;57789;53.868;10.728;2024-03-23T06:16:44;5.50;99.90
70368;DHT22;57789;53.868;10.728;2024-03-23T06:19:10;5.60;99.90
70368;DHT22;57789;53.868;10.728;2024-03-23T06:21:35;5.70;99.90
70368;DHT22;57789;53.868;10.728;2024-03-23T06:24:01;5.70;99.90
70368;DHT22;57789;53.868;10.728;2024-03-23T06:26:27;5.70;99.90
70368;DHT22;57789;53.868;10.728;2024-03-23T06:28:52;5.70;99.90
70368;DHT22;57789;53.868;10.728;2024-03-23T06:31:18;5.70;99.90
70368;DHT22;57789;53.868;10.728;2024-03-23T06:33:43;5.80;99.90
70368;DHT22;57789;53.868;10.728;2024-03-23T06:36:10;5.80;99.90
70368;DHT22;57789;53.868;10.728;2024-03-23T06:38:37;5.80;99.90
70368;DHT22;57789;53.868;10.728;2024-03-23T06:41:06;5.80;99.90
70368;DHT22;57789;53.868;10.728;2024-03-23T06:43:32;5.90;99.90
70368;DHT22;57789;53.868;10.728;2024-03-23T06:45:58;6.00;99.90
70368;DHT22;57789;53.868;10.728;2024-03-23T06:48:23;6.10;99.90
70368;DHT22;57789;53.868;10.728;2024-03-23T06:50:49;6.10;99.90
70368;DHT22;57789;53.868;10.728;2024-03-23T06:53:15;6.10;99.90
70368;DHT22;57789;53.868;10.728;2024-03-23T06:55:41;6.10;99.90
70368;DHT22;57789;53.868;10.728;2024-03-23T06:58:09;6.20;99.90
70368;DHT22;57789;53.868;10.728;2024-03-23T07:00:35;6.30;99.90
70368;DHT22;57789;53.868;10.728;2024-03-23T07:03:01;6.30;99.90
70368;DHT22;57789;53.868;10.728;2024-03-23T07:05:27;6.40;99.90
70368;DHT22;57789;53.868;10.728;2024-03-23T07:07:52;6.40;99.90
70368;DHT22;57789;53.868;10.728;2024-03-23T07:10:18;6.40;99.90
70368;DHT22;57789;53.868;10.728;2024-03-23T07:12:43;6.50;99.90
70368;DHT22;57789;53.868;10.728;2024-03-23T07:15:09;6.50;99.90
70368;DHT22;57789;53.868;10.728;2024-03-23T07:17:35;6.60;99.90
70368;DHT22;57789;53.868;10.728;2024-03-23T07:20:02;6.60;99.90
70368;DHT22;57789;53.868;10.728;2024-03-23T07:22:30;6.60;99.90
70368;DHT22;57789;53.868;10.728;2024-03-23T07:24:57;6.70;99.90
70368;DHT22;57789;53.868;10.728;2024-03-23T07:27:22;6.70;99.90
70368;DHT22;57789;53.868;10.728;2024-03-23T07:29:49;6.80;99.90
70368;DHT22;57789;53.868;10.728;2024-03-23T07:32:15;6.80;99.90
70368;DHT22;57789;53.868;10.728;2024-03-23T07:34:40;6.80;99.90
70368;DHT22;57789;53.868;10.728;2024-03-23T07:37:08;6.80;99.90
70368;DHT22;57789;53.868;10.728;2024-03-23T07:39:34;6.90;99.90
70368;DHT22;57789;53.868;10.728;2024-03-23T07:42:00;7.00;99.90
70368;DHT22;57789;53.868;10.728;2024-03-23T07:44:26;7.10;99.90
70368;DHT22;57789;53.868;10.728;2024-03-23T07:46:51;7.00;99.90
70368;DHT22;57789;53.868;10.728;2024-03-23T07:49:17;7.10;99.90
70368;DHT22;57789;53.868;10.728;2024-03-23T07:51:43;7.10;99.90
70368;DHT22;57789;53.868;10.728;2024-03-23T07:54:10;7.10;99.90
70368;DHT22;57789;53.868;10.728;2024-03-23T07:56:35;7.20;99.90
70368;DHT22;57789;53.868;10.728;2024-03-23T07:59:01;7.30;99.90
70368;DHT22;57789;53.868;10.728;2024-03-23T08:01:29;7.40;99.90
70368;DHT22;57789;53.868;10.728;2024-03-23T08:03:54;7.50;99.90
70368;DHT22;57789;53.868;10.728;2024-03-23T08:06:21;7.50;99.90
70368;DHT22;57789;53.868;10.728;2024-03-23T08:08:50;7.50;99.90
70368;DHT22;57789;53.868;10.728;2024-03-23T08:11:19;7.40;99.90
70368;DHT22;57789;53.868;10.728;2024-03-23T08:13:45;7.50;99.90
70368;DHT22;57789;53.868;10.728;2024-03-23T08:16:11;7.60;99.90
70368;DHT22;57789;53.868;10.728;2024-03-23T08:18:39;7.70;99.90
70368;DHT22;57789;53.868;10.728;2024-03-23T08:21:06;7.80;99.90
70368;DHT22;57789;53.868;10.728;2024-03-23T08:23:33;7.90;99.90
70368;DHT22;57789;53.868;10.728;2024-03-23T08:26:07;8.00;99.90
70368;DHT22;57789;53.868;10.728;2024-03-23T08:28:34;8.00;99.90
70368;DHT22;57789;53.868;10.728;2024-03-23T08:31:10;8.00;99.90
70368;DHT22;57789;53.868;10.728;2024-03-23T08:33:38;8.10;99.90
70368;DHT22;57789;53.868;10.728;2024-03-23T08:36:09;8.20;99.90
70368;DHT22;57789;53.868;10.728;2024-03-23T08:38:38;8.50;99.90
70368;DHT22;57789;53.868;10.728;2024-03-23T08:43:37;8.70;99.90
70368;DHT22;57789;53.868;10.728;2024-03-23T08:46:11;8.80;99.90
70368;DHT22;57789;53.868;10.728;2024-03-23T08:48:44;8.90;99.90
70368;DHT22;57789;53.868;10.728;2024-03-23T08:51:12;9.00;99.90
70368;DHT22;57789;53.868;10.728;2024-03-23T08:53:39;8.90;99.90
70368;DHT22;57789;53.868;10.728;2024-03-23T08:56:06;8.80;99.90
70368;DHT22;57789;53.868;10.728;2024-03-23T08:58:33;8.60;99.90
70368;DHT22;57789;53.868;10.728;2024-03-23T09:01:11;8.70;99.90
70368;DHT22;57789;53.868;10.728;2024-03-23T09:03:39;8.80;99.90
70368;DHT22;57789;53.868;10.728;2024-03-23T09:06:13;8.70;99.90
70368;DHT22;57789;53.868;10.728;2024-03-23T09:08:40;8.60;99.90
70368;DHT22;57789;53.868;10.728;2024-03-23T09:11:08;8.40;99.90
70368;DHT22;57789;53.868;10.728;2024-03-23T09:13:35;8.30;99.90
70368;DHT22;57789;53.868;10.728;2024-03-23T09:16:02;8.50;99.90
70368;DHT22;57789;53.868;10.728;2024-03-23T09:18:32;8.50;99.90
70368;DHT22;57789;53.868;10.728;2024-03-23T09:20:58;8.70;99.90
70368;DHT22;57789;53.868;10.728;2024-03-23T09:23:24;9.00;99.90
70368;DHT22;57789;53.868;10.728;2024-03-23T09:25:50;9.30;99.90
70368;DHT22;57789;53.868;10.728;2024-03-23T09:28:18;9.50;99.90
70368;DHT22;57789;53.868;10.728;2024-03-23T09:30:44;9.70;99.90
70368;DHT22;57789;53.868;10.728;2024-03-23T09:33:10;10.40;99.90
70368;DHT22;57789;53.868;10.728;2024-03-23T09:35:41;10.90;99.90
70368;DHT22;57789;53.868;10.728;2024-03-23T09:38:07;11.10;99.90
70368;DHT22;57789;53.868;10.728;2024-03-23T09:40:39;10.60;99.90
70368;DHT22;57789;53.868;10.728;2024-03-23T09:43:06;10.40;99.90
70368;DHT22;57789;53.868;10.728;2024-03-23T09:45:34;10.40;99.90
70368;DHT22;57789;53.868;10.728;2024-03-23T09:48:01;10.30;99.90
70368;DHT22;57789;53.868;10.728;2024-03-23T09:50:27;10.10;99.90
70368;DHT22;57789;53.868;10.728;2024-03-23T09:52:53;9.80;99.90
70368;DHT22;57789;53.868;10.728;2024-03-23T09:55:18;10.10;99.90
70368;DHT22;57789;53.868;10.728;2024-03-23T09:57:44;10.40;99.90
70368;DHT22;57789;53.868;10.728;2024-03-23T10:00:10;10.50;99.90
70368;DHT22;57789;53.868;10.728;2024-03-23T10:02:37;10.50;99.90
70368;DHT22;57789;53.868;10.728;2024-03-23T10:05:04;10.50;99.90
70368;DHT22;57789;53.868;10.728;2024-03-23T10:07:30;10.70;99.90
70368;DHT22;57789;53.868;10.728;2024-03-23T10:09:55;11.00;99.90
70368;DHT22;57789;53.868;10.728;2024-03-23T10:12:23;11.00;99.90
70368;DHT22;57789;53.868;10.728;2024-03-23T10:14:49;11.00;99.90
70368;DHT22;57789;53.868;10.728;2024-03-23T10:17:20;10.70;99.90
70368;DHT22;57789;53.868;10.728;2024-03-23T10:19:46;10.50;99.90
70368;DHT22;57789;53.868;10.728;2024-03-23T10:22:20;10.40;99.90
70368;DHT22;57789;53.868;10.728;2024-03-23T10:24:47;10.10;99.90
70368;DHT22;57789;53.868;10.728;2024-03-23T10:27:20;9.80;99.90
70368;DHT22;57789;53.868;10.728;2024-03-23T10:29:46;9.50;99.90
70368;DHT22;57789;53.868;10.728;2024-03-23T10:32:13;9.30;99.90
70368;DHT22;57789;53.868;10.728;2024-03-23T10:34:39;9.10;99.90
70368;DHT22;57789;53.868;10.728;2024-03-23T10:37:06;9.20;99.90
70368;DHT22;57789;53.868;10.728;2024-03-23T10:39:35;9.50;99.90
70368;DHT22;57789;53.868;10.728;2024-03-23T10:42:08;9.70;99.90
70368;DHT22;57789;53.868;10.728;2024-03-23T10:44:36;9.90;99.90
70368;DHT22;57789;53.868;10.728;2024-03-23T10:47:04;9.80;99.90
70368;DHT22;57789;53.868;10.728;2024-03-23T10:49:32;10.10;99.90
70368;DHT22;57789;53.868;10.728;2024-03-23T10:51:59;10.20;99.90
70368;DHT22;57789;53.868;10.728;2024-03-23T10:54:26;10.50;99.90
70368;DHT22;57789;53.868;10.728;2024-03-23T10:59:34;10.20;99.90
70368;DHT22;57789;53.868;10.728;2024-03-23T11:02:01;10.30;99.90
70368;DHT22;57789;53.868;10.728;2024-03-23T11:06:59;10.40;99.90
70368;DHT22;57789;53.868;10.728;2024-03-23T11:09:40;10.50;99.90
70368;DHT22;57789;53.868;10.728;2024-03-23T11:14:54;10.60;99.90
70368;DHT22;57789;53.868;10.728;2024-03-23T11:17:21;10.70;99.90
70368;DHT22;57789;53.868;10.728;2024-03-23T11:20:01;11.00;99.90
70368;DHT22;57789;53.868;10.728;2024-03-23T11:22:46;11.40;99.90
70368;DHT22;57789;53.868;10.728;2024-03-23T11:25:21;11.40;99.90
70368;DHT22;57789;53.868;10.728;2024-03-23T11:27:48;11.50;99.90
70368;DHT22;57789;53.868;10.728;2024-03-23T11:30:18;11.50;99.90
70368;DHT22;57789;53.868;10.728;2024-03-23T11:32:48;12.00;99.90
70368;DHT22;57789;53.868;10.728;2024-03-23T11:35:34;12.50;99.90
70368;DHT22;57789;53.868;10.728;2024-03-23T11:38:16;12.70;99.90
70368;DHT22;57789;53.868;10.728;2024-03-23T11:40:47;12.50;99.90
70368;DHT22;57789;53.868;10.728;2024-03-23T11:43:15;12.10;99.90
70368;DHT22;57789;53.868;10.728;2024-03-23T11:45:48;11.40;99.90
70368;DHT22;57789;53.868;10.728;2024-03-23T11:48:19;11.30;99.90
70368;DHT22;57789;53.868;10.728;2024-03-23T11:50:49;11.70;99.90
70368;DHT22;57789;53.868;10.728;2024-03-23T11:53:19;12.30;99.90
70368;DHT22;57789;53.868;10.728;2024-03-23T11:55:56;11.70;99.90
70368;DHT22;57789;53.868;10.728;2024-03-23T11:58:24;10.80;99.90
70368;DHT22;57789;53.868;10.728;2024-03-23T12:01:02;10.50;99.90
70368;DHT22;57789;53.868;10.728;2024-03-23T12:03:29;10.20;99.90
70368;DHT22;57789;53.868;10.728;2024-03-23T12:05:57;10.20;99.90
70368;DHT22;57789;53.868;10.728;2024-03-23T12:11:04;10.00;99.90
70368;DHT22;57789;53.868;10.728;2024-03-23T12:13:30;10.00;99.90
70368;DHT22;57789;53.868;10.728;2024-03-23T12:16:09;9.90;99.90
70368;DHT22;57789;53.868;10.728;2024-03-23T12:18:35;10.00;99.90
70368;DHT22;57789;53.868;10.728;2024-03-23T12:21:00;10.20;99.90
70368;DHT22;57789;53.868;10.728;2024-03-23T12:23:26;10.40;99.90
70368;DHT22;57789;53.868;10.728;2024-03-23T12:25:52;10.10;99.90
70368;DHT22;57789;53.868;10.728;2024-03-23T12:28:17;9.70;99.90
70368;DHT22;57789;53.868;10.728;2024-03-23T12:30:43;9.70;99.90
70368;DHT22;57789;53.868;10.728;2024-03-23T12:33:08;9.70;99.90
70368;DHT22;57789;53.868;10.728;2024-03-23T12:35:34;9.80;99.90
70368;DHT22;57789;53.868;10.728;2024-03-23T12:38:00;10.00;99.90
70368;DHT22;57789;53.868;10.728;2024-03-23T12:40:26;10.20;99.90
70368;DHT22;57789;53.868;10.728;2024-03-23T12:42:53;10.30;99.90
70368;DHT22;57789;53.868;10.728;2024-03-23T12:45:19;10.50;99.90
70368;DHT22;57789;53.868;10.728;2024-03-23T12:47:44;10.80;99.90
70368;DHT22;57789;53.868;10.728;2024-03-23T12:50:10;10.90;99.90
70368;DHT22;57789;53.868;10.728;2024-03-23T12:52:37;10.70;99.90
70368;DHT22;57789;53.868;10.728;2024-03-23T12:55:03;10.30;99.90
70368;DHT22;57789;53.868;10.728;2024-03-23T12:57:31;9.90;99.90
70368;DHT22;57789;53.868;10.728;2024-03-23T12:59:57;9.70;99.90
70368;DHT22;57789;53.868;10.728;2024-03-23T13:02:23;9.50;99.90
70368;DHT22;57789;53.868;10.728;2024-03-23T13:04:53;9.30;99.90
70368;DHT22;57789;53.868;10.728;2024-03-23T13:07:20;9.10;99.90
70368;DHT22;57789;53.868;10.728;2024-03-23T13:09:46;8.80;99.90
70368;DHT22;57789;53.868;10.728;2024-03-23T13:12:12;8.80;99.90
70368;DHT22;57789;53.868;10.728;2024-03-23T13:14:38;8.70;99.90
70368;DHT22;57789;53.868;10.728;2024-03-23T13:17:04;8.70;99.90
70368;DHT22;57789;53.868;10.728;2024-03-23T13:19:30;9.00;99.90
70368;DHT22;57789;53.868;10.728;2024-03-23T13:22:00;9.50;99.90
70368;DHT22;57789;53.868;10.728;2024-03-23T13:24:27;9.60;99.90
70368;DHT22;57789;53.868;10.728;2024-03-23T13:26:53;9.80;99.90
70368;DHT22;57789;53.868;10.728;2024-03-23T13:29:20;9.70;99.90
70368;DHT22;57789;53.868;10.728;2024-03-23T13:31:46;10.10;99.90
70368;DHT22;57789;53.868;10.728;2024-03-23T13:34:12;10.10;99.90
70368;DHT22;57789;53.868;10.728;2024-03-23T13:36:44;10.10;99.90
70368;DHT22;57789;53.868;10.728;2024-03-23T13:39:11;10.20;99.90
70368;DHT22;57789;53.868;10.728;2024-03-23T13:41:44;9.90;99.90
70368;DHT22;57789;53.868;10.728;2024-03-23T13:44:11;9.80;99.90
70368;DHT22;57789;53.868;10.728;2024-03-23T13:46:37;9.60;99.90
70368;DHT22;57789;53.868;10.728;2024-03-23T13:49:04;9.90;99.90
70368;DHT22;57789;53.868;10.728;2024-03-23T13:51:29;10.10;99.90
70368;DHT22;57789;53.868;10.728;2024-03-23T13:53:56;10.70;99.90
70368;DHT22;57789;53.868;10.728;2024-03-23T13:56:29;11.20;99.90
70368;DHT22;57789;53.868;10.728;2024-03-23T13:58:58;11.50;99.90
70368;DHT22;57789;53.868;10.728;2024-03-23T14:01:23;11.60;99.90
70368;DHT22;57789;53.868;10.728;2024-03-23T14:03:49;12.30;99.90
70368;DHT22;57789;53.868;10.728;2024-03-23T14:06:15;12.10;99.90
70368;DHT22;57789;53.868;10.728;2024-03-23T14:08:41;11.80;99.90
70368;DHT22;57789;53.868;10.728;2024-03-23T14:11:10;11.30;99.90
70368;DHT22;57789;53.868;10.728;2024-03-23T14:13:36;10.70;99.90
70368;DHT22;57789;53.868;10.728;2024-03-23T14:16:02;10.00;99.90
70368;DHT22;57789;53.868;10.728;2024-03-23T14:18:28;9.50;99.90
70368;DHT22;57789;53.868;10.728;2024-03-23T14:20:58;9.10;99.90
70368;DHT22;57789;53.868;10.728;2024-03-23T14:23:28;8.60;99.90
70368;DHT22;57789;53.868;10.728;2024-03-23T14:25:55;7.90;99.90
70368;DHT22;57789;53.868;10.728;2024-03-23T14:28:22;7.70;99.90
70368;DHT22;57789;53.868;10.728;2024-03-23T14:30:49;7.90;99.90
70368;DHT22;57789;53.868;10.728;2024-03-23T14:33:15;7.90;99.90
70368;DHT22;57789;53.868;10.728;2024-03-23T14:35:41;8.20;99.90
70368;DHT22;57789;53.868;10.728;2024-03-23T14:38:08;8.50;99.90
70368;DHT22;57789;53.868;10.728;2024-03-23T14:40:34;8.90;99.90
70368;DHT22;57789;53.868;10.728;2024-03-23T14:42:59;9.20;99.90
70368;DHT22;57789;53.868;10.728;2024-03-23T14:45:25;9.20;99.90
70368;DHT22;57789;53.868;10.728;2024-03-23T14:47:51;9.80;99.90
70368;DHT22;57789;53.868;10.728;2024-03-23T14:50:17;10.30;99.90
70368;DHT22;57789;53.868;10.728;2024-03-23T14:52:46;10.50;99.90
70368;DHT22;57789;53.868;10.728;2024-03-23T14:55:12;10.80;99.90
70368;DHT22;57789;53.868;10.728;2024-03-23T14:57:38;11.20;99.90
70368;DHT22;57789;53.868;10.728;2024-03-23T15:00:12;11.00;99.90
70368;DHT22;57789;53.868;10.728;2024-03-23T15:02:38;10.80;99.90
70368;DHT22;57789;53.868;10.728;2024-03-23T15:05:04;10.80;99.90
70368;DHT22;57789;53.868;10.728;2024-03-23T15:07:33;10.50;99.90
70368;DHT22;57789;53.868;10.728;2024-03-23T15:09:58;10.30;99.90
70368;DHT22;57789;53.868;10.728;2024-03-23T15:12:24;9.90;99.90
70368;DHT22;57789;53.868;10.728;2024-03-23T15:14:50;10.00;99.90
70368;DHT22;57789;53.868;10.728;2024-03-23T15:17:18;9.90;99.90
70368;DHT22;57789;53.868;10.728;2024-03-23T15:19:44;9.90;99.90
70368;DHT22;57789;53.868;10.728;2024-03-23T15:22:10;10.20;99.90
70368;DHT22;57789;53.868;10.728;2024-03-23T15:24:36;10.40;99.90
70368;DHT22;57789;53.868;10.728;2024-03-23T15:27:03;10.00;99.90
70368;DHT22;57789;53.868;10.728;2024-03-23T15:29:29;10.00;99.90
70368;DHT22;57789;53.868;10.728;2024-03-23T15:31:56;10.10;99.90
70368;DHT22;57789;53.868;10.728;2024-03-23T15:34:25;10.00;99.90
70368;DHT22;57789;53.868;10.728;2024-03-23T15:36:51;9.90;99.90
70368;DHT22;57789;53.868;10.728;2024-03-23T15:39:17;10.00;99.90
70368;DHT22;57789;53.868;10.728;2024-03-23T15:41:46;10.00;99.90
70368;DHT22;57789;53.868;10.728;2024-03-23T15:44:12;10.30;99.90
70368;DHT22;57789;53.868;10.728;2024-03-23T15:46:38;10.00;99.90
70368;DHT22;57789;53.868;10.728;2024-03-23T15:49:03;9.60;99.90
70368;DHT22;57789;53.868;10.728;2024-03-23T15:51:30;9.60;99.90
70368;DHT22;57789;53.868;10.728;2024-03-23T15:53:59;9.60;99.90
70368;DHT22;57789;53.868;10.728;2024-03-23T15:56:25;9.50;99.90
70368;DHT22;57789;53.868;10.728;2024-03-23T15:58:50;9.20;99.90
70368;DHT22;57789;53.868;10.728;2024-03-23T16:01:16;8.90;99.90
70368;DHT22;57789;53.868;10.728;2024-03-23T16:03:42;8.80;99.90
70368;DHT22;57789;53.868;10.728;2024-03-23T16:06:08;8.90;99.90
70368;DHT22;57789;53.868;10.728;2024-03-23T16:08:34;9.10;99.90
70368;DHT22;57789;53.868;10.728;2024-03-23T16:11:04;9.20;99.90
70368;DHT22;57789;53.868;10.728;2024-03-23T16:13:31;9.50;99.90
70368;DHT22;57789;53.868;10.728;2024-03-23T16:16:00;9.20;99.90
70368;DHT22;57789;53.868;10.728;2024-03-23T16:18:29;9.00;99.90
70368;DHT22;57789;53.868;10.728;2024-03-23T16:20:56;9.00;99.90
70368;DHT22;57789;53.868;10.728;2024-03-23T16:23:22;8.90;99.90
70368;DHT22;57789;53.868;10.728;2024-03-23T16:25:49;8.70;99.90
70368;DHT22;57789;53.868;10.728;2024-03-23T16:28:25;8.60;99.90
70368;DHT22;57789;53.868;10.728;2024-03-23T16:31:04;8.40;99.90
70368;DHT22;57789;53.868;10.728;2024-03-23T16:33:32;8.30;99.90